sensor_id;sensor_type;location;lat;lon;timestamp;P1;durP1;ratioP1;P2;durP2;ratioP2
32864;SDS011;19219;44.500;11.188;2023-10-31T00:02:08;3.95;;;1.52;;
32864;SDS011;19219;44.500;11.188;2023-10-31T00:04:34;2.95;;;1.50;;
32864;SDS011;19219;44.500;11.188;2023-10-31T00:07:00;1.95;;;1.00;;
32864;SDS011;19219;44.500;11.188;2023-10-31T00:09:26;2.00;;;1.45;;
32864;SDS011;19219;44.500;11.188;2023-10-31T00:11:52;2.13;;;1.20;;
32864;SDS011;19219;44.500;11.188;2023-10-31T00:14:17;2.28;;;1.00;;
32864;SDS011;19219;44.500;11.188;2023-10-31T00:16:44;2.22;;;1.20;;
32864;SDS011;19219;44.500;11.188;2023-10-31T00:19:09;4.55;;;1.27;;
32864;SDS011;19219;44.500;11.188;2023-10-31T00:21:35;3.20;;;1.30;;
32864;SDS011;19219;44.500;11.188;2023-10-31T00:24:01;5.25;;;1.20;;
32864;SDS011;19219;44.500;11.188;2023-10-31T00:26:28;2.28;;;1.02;;
32864;SDS011;19219;44.500;11.188;2023-10-31T00:28:53;2.28;;;1.25;;
32864;SDS011;19219;44.500;11.188;2023-10-31T00:31:19;7.53;;;1.58;;
32864;SDS011;19219;44.500;11.188;2023-10-31T00:33:45;3.35;;;1.15;;
32864;SDS011;19219;44.500;11.188;2023-10-31T00:36:11;4.22;;;1.50;;
32864;SDS011;19219;44.500;11.188;2023-10-31T00:38:36;5.32;;;1.73;;
32864;SDS011;19219;44.500;11.188;2023-10-31T00:41:02;6.80;;;1.80;;
32864;SDS011;19219;44.500;11.188;2023-10-31T00:43:28;2.35;;;1.70;;
32864;SDS011;19219;44.500;11.188;2023-10-31T00:45:54;3.88;;;2.08;;
32864;SDS011;19219;44.500;11.188;2023-10-31T00:48:19;3.17;;;1.40;;
32864;SDS011;19219;44.500;11.188;2023-10-31T00:50:45;6.72;;;1.77;;
32864;SDS011;19219;44.500;11.188;2023-10-31T00:53:11;3.85;;;1.50;;
32864;SDS011;19219;44.500;11.188;2023-10-31T00:55:38;5.78;;;1.77;;
32864;SDS011;19219;44.500;11.188;2023-10-31T00:58:04;3.05;;;1.98;;
32864;SDS011;19219;44.500;11.188;2023-10-31T01:00:30;4.70;;;2.00;;
32864;SDS011;19219;44.500;11.188;2023-10-31T01:02:56;3.30;;;1.90;;
32864;SDS011;19219;44.500;11.188;2023-10-31T01:05:22;4.55;;;1.70;;
32864;SDS011;19219;44.500;11.188;2023-10-31T01:07:48;2.70;;;1.88;;
32864;SDS011;19219;44.500;11.188;2023-10-31T01:10:13;5.90;;;1.60;;
32864;SDS011;19219;44.500;11.188;2023-10-31T01:12:39;8.13;;;1.83;;
32864;SDS011;19219;44.500;11.188;2023-10-31T01:15:05;3.72;;;1.50;;
32864;SDS011;19219;44.500;11.188;2023-10-31T01:17:32;3.53;;;1.52;;
32864;SDS011;19219;44.500;11.188;2023-10-31T01:19:57;1.88;;;1.58;;
32864;SDS011;19219;44.500;11.188;2023-10-31T01:22:23;5.00;;;1.65;;
32864;SDS011;19219;44.500;11.188;2023-10-31T01:24:49;5.97;;;1.70;;
32864;SDS011;19219;44.500;11.188;2023-10-31T01:27:14;5.93;;;1.77;;
32864;SDS011;19219;44.500;11.188;2023-10-31T01:29:40;6.93;;;2.38;;
32864;SDS011;19219;44.500;11.188;2023-10-31T01:32:05;2.67;;;1.40;;
32864;SDS011;19219;44.500;11.188;2023-10-31T01:34:31;5.40;;;1.52;;
32864;SDS011;19219;44.500;11.188;2023-10-31T01:36:57;2.25;;;1.50;;
32864;SDS011;19219;44.500;11.188;2023-10-31T01:39:23;2.65;;;1.20;;
32864;SDS011;19219;44.500;11.188;2023-10-31T01:41:48;1.58;;;1.33;;
32864;SDS011;19219;44.500;11.188;2023-10-31T01:44:14;2.63;;;1.15;;
32864;SDS011;19219;44.500;11.188;2023-10-31T01:46:40;3.00;;;1.25;;
32864;SDS011;19219;44.500;11.188;2023-10-31T01:49:05;1.85;;;1.00;;
32864;SDS011;19219;44.500;11.188;2023-10-31T01:51:31;5.53;;;1.48;;
32864;SDS011;19219;44.500;11.188;2023-10-31T01:53:57;2.97;;;1.45;;
32864;SDS011;19219;44.500;11.188;2023-10-31T01:56:23;1.50;;;1.40;;
32864;SDS011;19219;44.500;11.188;2023-10-31T01:58:50;2.67;;;0.98;;
32864;SDS011;19219;44.500;11.188;2023-10-31T02:01:18;5.45;;;1.38;;
32864;SDS011;19219;44.500;11.188;2023-10-31T02:03:44;7.00;;;1.48;;
32864;SDS011;19219;44.500;11.188;2023-10-31T02:06:10;2.00;;;1.60;;
32864;SDS011;19219;44.500;11.188;2023-10-31T02:08:36;3.38;;;1.48;;
32864;SDS011;19219;44.500;11.188;2023-10-31T02:11:01;1.90;;;1.13;;
32864;SDS011;19219;44.500;11.188;2023-10-31T02:13:28;4.07;;;1.75;;
32864;SDS011;19219;44.500;11.188;2023-10-31T02:15:54;2.83;;;1.63;;
32864;SDS011;19219;44.500;11.188;2023-10-31T02:18:20;1.55;;;1.20;;
32864;SDS011;19219;44.500;11.188;2023-10-31T02:20:46;6.97;;;1.70;;
32864;SDS011;19219;44.500;11.188;2023-10-31T02:23:11;3.72;;;1.38;;
32864;SDS011;19219;44.500;11.188;2023-10-31T02:25:38;4.82;;;1.60;;
32864;SDS011;19219;44.500;11.188;2023-10-31T02:28:04;3.92;;;2.20;;
32864;SDS011;19219;44.500;11.188;2023-10-31T02:30:30;2.88;;;2.67;;
32864;SDS011;19219;44.500;11.188;2023-10-31T02:32:55;2.55;;;1.20;;
32864;SDS011;19219;44.500;11.188;2023-10-31T02:35:21;3.40;;;1.20;;
32864;SDS011;19219;44.500;11.188;2023-10-31T02:37:47;1.48;;;1.38;;
32864;SDS011;19219;44.500;11.188;2023-10-31T02:40:13;3.85;;;2.15;;
32864;SDS011;19219;44.500;11.188;2023-10-31T02:42:39;3.72;;;1.50;;
32864;SDS011;19219;44.500;11.188;2023-10-31T02:45:05;3.58;;;1.02;;
32864;SDS011;19219;44.500;11.188;2023-10-31T02:47:31;4.07;;;1.30;;
32864;SDS011;19219;44.500;11.188;2023-10-31T02:49:57;4.43;;;1.33;;
32864;SDS011;19219;44.500;11.188;2023-10-31T02:52:23;2.72;;;1.20;;
32864;SDS011;19219;44.500;11.188;2023-10-31T02:54:49;4.88;;;2.00;;
32864;SDS011;19219;44.500;11.188;2023-10-31T02:57:17;2.90;;;1.73;;
32864;SDS011;19219;44.500;11.188;2023-10-31T02:59:43;3.65;;;1.48;;
32864;SDS011;19219;44.500;11.188;2023-10-31T03:02:08;6.53;;;2.10;;
32864;SDS011;19219;44.500;11.188;2023-10-31T03:04:36;11.52;;;2.10;;
32864;SDS011;19219;44.500;11.188;2023-10-31T03:07:02;4.10;;;1.50;;
32864;SDS011;19219;44.500;11.188;2023-10-31T03:09:27;4.97;;;1.55;;
32864;SDS011;19219;44.500;11.188;2023-10-31T03:11:53;6.30;;;1.77;;
32864;SDS011;19219;44.500;11.188;2023-10-31T03:14:19;6.15;;;1.95;;
32864;SDS011;19219;44.500;11.188;2023-10-31T03:16:44;3.50;;;1.40;;
32864;SDS011;19219;44.500;11.188;2023-10-31T03:19:10;4.18;;;1.88;;
32864;SDS011;19219;44.500;11.188;2023-10-31T03:21:36;6.20;;;1.50;;
32864;SDS011;19219;44.500;11.188;2023-10-31T03:24:01;4.90;;;1.30;;
32864;SDS011;19219;44.500;11.188;2023-10-31T03:26:27;7.22;;;1.65;;
32864;SDS011;19219;44.500;11.188;2023-10-31T03:28:53;7.15;;;1.98;;
32864;SDS011;19219;44.500;11.188;2023-10-31T03:31:22;2.15;;;1.02;;
32864;SDS011;19219;44.500;11.188;2023-10-31T03:33:48;2.92;;;0.90;;
32864;SDS011;19219;44.500;11.188;2023-10-31T03:36:14;2.97;;;1.65;;
32864;SDS011;19219;44.500;11.188;2023-10-31T03:38:40;3.67;;;1.05;;
32864;SDS011;19219;44.500;11.188;2023-10-31T03:41:05;1.80;;;0.80;;
32864;SDS011;19219;44.500;11.188;2023-10-31T03:43:31;2.15;;;0.93;;
32864;SDS011;19219;44.500;11.188;2023-10-31T03:45:57;1.58;;;1.02;;
32864;SDS011;19219;44.500;11.188;2023-10-31T03:48:23;0.88;;;0.85;;
32864;SDS011;19219;44.500;11.188;2023-10-31T03:50:49;5.90;;;1.33;;
32864;SDS011;19219;44.500;11.188;2023-10-31T03:53:15;5.00;;;1.20;;
32864;SDS011;19219;44.500;11.188;2023-10-31T03:55:41;3.42;;;1.08;;
32864;SDS011;19219;44.500;11.188;2023-10-31T03:58:07;3.25;;;1.05;;
32864;SDS011;19219;44.500;11.188;2023-10-31T04:00:32;2.25;;;0.90;;
32864;SDS011;19219;44.500;11.188;2023-10-31T04:02:58;2.42;;;1.00;;
32864;SDS011;19219;44.500;11.188;2023-10-31T04:05:24;3.80;;;0.70;;
32864;SDS011;19219;44.500;11.188;2023-10-31T04:07:49;5.63;;;1.10;;
32864;SDS011;19219;44.500;11.188;2023-10-31T04:10:15;7.80;;;1.33;;
32864;SDS011;19219;44.500;11.188;2023-10-31T04:12:43;2.42;;;1.08;;
32864;SDS011;19219;44.500;11.188;2023-10-31T04:15:08;4.25;;;1.15;;
32864;SDS011;19219;44.500;11.188;2023-10-31T04:17:34;1.52;;;0.80;;
32864;SDS011;19219;44.500;11.188;2023-10-31T04:20:01;3.13;;;0.60;;
32864;SDS011;19219;44.500;11.188;2023-10-31T04:22:28;2.33;;;1.40;;
32864;SDS011;19219;44.500;11.188;2023-10-31T04:24:53;3.28;;;0.80;;
32864;SDS011;19219;44.500;11.188;2023-10-31T04:27:21;2.88;;;0.90;;
32864;SDS011;19219;44.500;11.188;2023-10-31T04:29:46;1.38;;;0.98;;
32864;SDS011;19219;44.500;11.188;2023-10-31T04:32:12;3.65;;;1.05;;
32864;SDS011;19219;44.500;11.188;2023-10-31T04:34:38;2.83;;;0.93;;
32864;SDS011;19219;44.500;11.188;2023-10-31T04:37:04;7.38;;;0.77;;
32864;SDS011;19219;44.500;11.188;2023-10-31T04:39:29;2.17;;;0.75;;
32864;SDS011;19219;44.500;11.188;2023-10-31T04:41:55;2.15;;;0.82;;
32864;SDS011;19219;44.500;11.188;2023-10-31T04:44:21;2.13;;;1.10;;
32864;SDS011;19219;44.500;11.188;2023-10-31T04:46:47;5.57;;;1.45;;
32864;SDS011;19219;44.500;11.188;2023-10-31T04:49:12;2.35;;;0.95;;
32864;SDS011;19219;44.500;11.188;2023-10-31T04:51:38;3.25;;;0.93;;
32864;SDS011;19219;44.500;11.188;2023-10-31T04:54:04;4.80;;;1.48;;
32864;SDS011;19219;44.500;11.188;2023-10-31T04:56:30;7.05;;;1.05;;
32864;SDS011;19219;44.500;11.188;2023-10-31T04:58:56;7.38;;;1.88;;
32864;SDS011;19219;44.500;11.188;2023-10-31T05:01:22;8.90;;;4.20;;
32864;SDS011;19219;44.500;11.188;2023-10-31T05:03:47;7.82;;;2.40;;
32864;SDS011;19219;44.500;11.188;2023-10-31T05:06:18;2.40;;;0.77;;
32864;SDS011;19219;44.500;11.188;2023-10-31T05:08:47;1.33;;;0.90;;
32864;SDS011;19219;44.500;11.188;2023-10-31T05:11:13;3.30;;;1.08;;
32864;SDS011;19219;44.500;11.188;2023-10-31T05:13:41;4.78;;;0.73;;
32864;SDS011;19219;44.500;11.188;2023-10-31T05:16:07;1.80;;;1.17;;
32864;SDS011;19219;44.500;11.188;2023-10-31T05:18:32;2.53;;;0.90;;
32864;SDS011;19219;44.500;11.188;2023-10-31T05:20:58;2.55;;;0.90;;
32864;SDS011;19219;44.500;11.188;2023-10-31T05:23:24;3.85;;;1.10;;
32864;SDS011;19219;44.500;11.188;2023-10-31T05:25:49;4.35;;;0.95;;
32864;SDS011;19219;44.500;11.188;2023-10-31T05:28:15;2.25;;;0.98;;
32864;SDS011;19219;44.500;11.188;2023-10-31T05:30:41;1.90;;;0.65;;
32864;SDS011;19219;44.500;11.188;2023-10-31T05:33:06;3.42;;;1.02;;
32864;SDS011;19219;44.500;11.188;2023-10-31T05:35:32;4.22;;;0.90;;
32864;SDS011;19219;44.500;11.188;2023-10-31T05:37:58;2.72;;;0.90;;
32864;SDS011;19219;44.500;11.188;2023-10-31T05:40:24;2.22;;;1.05;;
32864;SDS011;19219;44.500;11.188;2023-10-31T05:42:51;1.77;;;0.70;;
32864;SDS011;19219;44.500;11.188;2023-10-31T05:45:17;2.08;;;0.70;;
32864;SDS011;19219;44.500;11.188;2023-10-31T05:47:43;3.20;;;0.82;;
32864;SDS011;19219;44.500;11.188;2023-10-31T05:50:08;2.08;;;0.63;;
32864;SDS011;19219;44.500;11.188;2023-10-31T05:52:34;0.50;;;0.50;;
32864;SDS011;19219;44.500;11.188;2023-10-31T05:55:00;1.95;;;0.60;;
32864;SDS011;19219;44.500;11.188;2023-10-31T05:57:25;2.03;;;0.57;;
32864;SDS011;19219;44.500;11.188;2023-10-31T05:59:51;2.50;;;0.90;;
32864;SDS011;19219;44.500;11.188;2023-10-31T06:02:17;5.97;;;0.90;;
32864;SDS011;19219;44.500;11.188;2023-10-31T06:04:42;4.10;;;0.68;;
32864;SDS011;19219;44.500;11.188;2023-10-31T06:07:10;3.00;;;0.88;;
32864;SDS011;19219;44.500;11.188;2023-10-31T06:09:36;3.42;;;0.82;;
32864;SDS011;19219;44.500;11.188;2023-10-31T06:12:02;1.70;;;0.70;;
32864;SDS011;19219;44.500;11.188;2023-10-31T06:14:27;2.05;;;0.88;;
32864;SDS011;19219;44.500;11.188;2023-10-31T06:16:53;1.38;;;0.88;;
32864;SDS011;19219;44.500;11.188;2023-10-31T06:19:19;2.03;;;0.75;;
32864;SDS011;19219;44.500;11.188;2023-10-31T06:21:45;2.63;;;0.70;;
32864;SDS011;19219;44.500;11.188;2023-10-31T06:24:11;3.50;;;0.73;;
32864;SDS011;19219;44.500;11.188;2023-10-31T06:26:36;2.00;;;0.60;;
32864;SDS011;19219;44.500;11.188;2023-10-31T06:29:02;2.58;;;0.77;;
32864;SDS011;19219;44.500;11.188;2023-10-31T06:31:28;1.70;;;0.73;;
32864;SDS011;19219;44.500;11.188;2023-10-31T06:33:54;2.10;;;1.02;;
32864;SDS011;19219;44.500;11.188;2023-10-31T06:36:20;5.47;;;1.25;;
32864;SDS011;19219;44.500;11.188;2023-10-31T06:38:45;1.73;;;0.52;;
32864;SDS011;19219;44.500;11.188;2023-10-31T06:41:11;1.23;;;0.60;;
32864;SDS011;19219;44.500;11.188;2023-10-31T06:43:37;3.70;;;1.20;;
32864;SDS011;19219;44.500;11.188;2023-10-31T06:46:02;4.00;;;0.68;;
32864;SDS011;19219;44.500;11.188;2023-10-31T06:48:30;3.78;;;0.73;;
32864;SDS011;19219;44.500;11.188;2023-10-31T06:50:55;2.00;;;0.52;;
32864;SDS011;19219;44.500;11.188;2023-10-31T06:53:21;2.70;;;0.88;;
32864;SDS011;19219;44.500;11.188;2023-10-31T06:55:46;2.03;;;0.98;;
32864;SDS011;19219;44.500;11.188;2023-10-31T06:58:13;5.72;;;1.80;;
32864;SDS011;19219;44.500;11.188;2023-10-31T07:00:39;2.03;;;1.52;;
32864;SDS011;19219;44.500;11.188;2023-10-31T07:03:05;2.33;;;0.85;;
32864;SDS011;19219;44.500;11.188;2023-10-31T07:05:34;3.00;;;0.70;;
32864;SDS011;19219;44.500;11.188;2023-10-31T07:08:01;2.35;;;0.55;;
32864;SDS011;19219;44.500;11.188;2023-10-31T07:10:28;2.28;;;0.73;;
32864;SDS011;19219;44.500;11.188;2023-10-31T07:12:53;5.03;;;1.00;;
32864;SDS011;19219;44.500;11.188;2023-10-31T07:15:19;3.55;;;0.77;;
32864;SDS011;19219;44.500;11.188;2023-10-31T07:17:46;1.25;;;0.35;;
32864;SDS011;19219;44.500;11.188;2023-10-31T07:20:12;1.95;;;0.57;;
32864;SDS011;19219;44.500;11.188;2023-10-31T07:22:37;3.10;;;0.57;;
32864;SDS011;19219;44.500;11.188;2023-10-31T07:25:05;2.03;;;1.02;;
32864;SDS011;19219;44.500;11.188;2023-10-31T07:27:31;2.72;;;0.85;;
32864;SDS011;19219;44.500;11.188;2023-10-31T07:29:57;0.73;;;0.45;;
32864;SDS011;19219;44.500;11.188;2023-10-31T07:32:22;3.13;;;0.77;;
32864;SDS011;19219;44.500;11.188;2023-10-31T07:34:48;4.18;;;0.70;;
32864;SDS011;19219;44.500;11.188;2023-10-31T07:37:14;3.15;;;1.20;;
32864;SDS011;19219;44.500;11.188;2023-10-31T07:39:39;4.30;;;0.90;;
32864;SDS011;19219;44.500;11.188;2023-10-31T07:42:05;2.13;;;0.82;;
32864;SDS011;19219;44.500;11.188;2023-10-31T07:44:31;2.90;;;1.13;;
32864;SDS011;19219;44.500;11.188;2023-10-31T07:46:57;5.45;;;2.50;;
32864;SDS011;19219;44.500;11.188;2023-10-31T07:49:22;2.53;;;0.95;;
32864;SDS011;19219;44.500;11.188;2023-10-31T07:51:48;3.25;;;0.98;;
32864;SDS011;19219;44.500;11.188;2023-10-31T07:54:14;2.22;;;1.05;;
32864;SDS011;19219;44.500;11.188;2023-10-31T07:56:41;2.90;;;2.10;;
32864;SDS011;19219;44.500;11.188;2023-10-31T07:59:06;2.35;;;1.10;;
32864;SDS011;19219;44.500;11.188;2023-10-31T08:01:33;4.20;;;0.90;;
32864;SDS011;19219;44.500;11.188;2023-10-31T08:04:00;0.82;;;0.57;;
32864;SDS011;19219;44.500;11.188;2023-10-31T08:06:26;0.68;;;0.40;;
32864;SDS011;19219;44.500;11.188;2023-10-31T08:08:51;0.68;;;0.40;;
32864;SDS011;19219;44.500;11.188;2023-10-31T08:11:17;2.03;;;0.55;;
32864;SDS011;19219;44.500;11.188;2023-10-31T08:13:43;3.88;;;2.05;;
32864;SDS011;19219;44.500;11.188;2023-10-31T08:16:09;2.30;;;0.70;;
32864;SDS011;19219;44.500;11.188;2023-10-31T08:18:35;1.42;;;0.40;;
32864;SDS011;19219;44.500;11.188;2023-10-31T08:21:01;8.13;;;0.73;;
32864;SDS011;19219;44.500;11.188;2023-10-31T08:23:28;1.63;;;0.60;;
32864;SDS011;19219;44.500;11.188;2023-10-31T08:25:54;2.58;;;0.40;;
32864;SDS011;19219;44.500;11.188;2023-10-31T08:28:19;1.98;;;0.38;;
32864;SDS011;19219;44.500;11.188;2023-10-31T08:30:45;0.80;;;0.40;;
32864;SDS011;19219;44.500;11.188;2023-10-31T08:33:11;1.08;;;0.32;;
32864;SDS011;19219;44.500;11.188;2023-10-31T08:35:39;0.20;;;0.20;;
32864;SDS011;19219;44.500;11.188;2023-10-31T08:38:05;0.30;;;0.20;;
32864;SDS011;19219;44.500;11.188;2023-10-31T08:40:30;0.70;;;0.38;;
32864;SDS011;19219;44.500;11.188;2023-10-31T08:42:56;3.10;;;0.63;;
32864;SDS011;19219;44.500;11.188;2023-10-31T08:45:22;1.40;;;0.50;;
32864;SDS011;19219;44.500;11.188;2023-10-31T08:47:48;0.40;;;0.40;;
32864;SDS011;19219;44.500;11.188;2023-10-31T08:50:13;0.30;;;0.30;;
32864;SDS011;19219;44.500;11.188;2023-10-31T08:52:39;0.38;;;0.38;;
32864;SDS011;19219;44.500;11.188;2023-10-31T08:55:05;0.57;;;0.30;;
32864;SDS011;19219;44.500;11.188;2023-10-31T08:57:31;0.10;;;0.10;;
32864;SDS011;19219;44.500;11.188;2023-10-31T08:59:58;0.77;;;0.10;;
32864;SDS011;19219;44.500;11.188;2023-10-31T09:02:24;0.10;;;0.10;;
32864;SDS011;19219;44.500;11.188;2023-10-31T09:04:50;0.30;;;0.20;;
32864;SDS011;19219;44.500;11.188;2023-10-31T09:07:16;1.15;;;0.38;;
32864;SDS011;19219;44.500;11.188;2023-10-31T09:09:41;0.20;;;0.10;;
32864;SDS011;19219;44.500;11.188;2023-10-31T09:12:07;0.38;;;0.38;;
32864;SDS011;19219;44.500;11.188;2023-10-31T09:14:33;0.45;;;0.10;;
32864;SDS011;19219;44.500;11.188;2023-10-31T09:17:00;0.40;;;0.30;;
32864;SDS011;19219;44.500;11.188;2023-10-31T09:19:26;1.15;;;0.28;;
32864;SDS011;19219;44.500;11.188;2023-10-31T09:21:51;0.55;;;0.20;;
32864;SDS011;19219;44.500;11.188;2023-10-31T09:24:17;0.30;;;0.30;;
32864;SDS011;19219;44.500;11.188;2023-10-31T09:26:43;0.40;;;0.35;;
32864;SDS011;19219;44.500;11.188;2023-10-31T09:29:10;0.22;;;0.20;;
32864;SDS011;19219;44.500;11.188;2023-10-31T09:31:36;0.90;;;0.50;;
32864;SDS011;19219;44.500;11.188;2023-10-31T09:34:02;1.35;;;0.47;;
32864;SDS011;19219;44.500;11.188;2023-10-31T09:36:28;0.38;;;0.30;;
32864;SDS011;19219;44.500;11.188;2023-10-31T09:38:59;0.43;;;0.30;;
32864;SDS011;19219;44.500;11.188;2023-10-31T09:41:25;0.68;;;0.13;;
32864;SDS011;19219;44.500;11.188;2023-10-31T09:43:50;0.10;;;0.10;;
32864;SDS011;19219;44.500;11.188;2023-10-31T09:46:16;0.90;;;0.10;;
32864;SDS011;19219;44.500;11.188;2023-10-31T09:48:43;0.30;;;0.30;;
32864;SDS011;19219;44.500;11.188;2023-10-31T09:51:08;0.00;;;0.00;;
32864;SDS011;19219;44.500;11.188;2023-10-31T09:53:36;0.10;;;0.03;;
32864;SDS011;19219;44.500;11.188;2023-10-31T09:56:04;0.60;;;0.30;;
32864;SDS011;19219;44.500;11.188;2023-10-31T09:58:31;1.52;;;0.13;;
32864;SDS011;19219;44.500;11.188;2023-10-31T10:00:56;0.82;;;0.40;;
32864;SDS011;19219;44.500;11.188;2023-10-31T10:03:22;0.10;;;0.10;;
32864;SDS011;19219;44.500;11.188;2023-10-31T10:05:48;0.73;;;0.50;;
32864;SDS011;19219;44.500;11.188;2023-10-31T10:08:14;0.20;;;0.10;;
32864;SDS011;19219;44.500;11.188;2023-10-31T10:10:41;0.10;;;0.10;;
32864;SDS011;19219;44.500;11.188;2023-10-31T10:13:07;0.25;;;0.25;;
32864;SDS011;19219;44.500;11.188;2023-10-31T10:15:46;1.17;;;0.22;;
32864;SDS011;19219;44.500;11.188;2023-10-31T10:18:32;1.02;;;0.35;;
32864;SDS011;19219;44.500;11.188;2023-10-31T10:21:06;3.00;;;0.43;;
32864;SDS011;19219;44.500;11.188;2023-10-31T10:23:34;0.30;;;0.30;;
32864;SDS011;19219;44.500;11.188;2023-10-31T10:26:02;0.20;;;0.20;;
32864;SDS011;19219;44.500;11.188;2023-10-31T10:28:28;0.82;;;0.22;;
32864;SDS011;19219;44.500;11.188;2023-10-31T10:30:54;0.10;;;0.10;;
32864;SDS011;19219;44.500;11.188;2023-10-31T10:33:20;0.77;;;0.20;;
32864;SDS011;19219;44.500;11.188;2023-10-31T10:35:46;0.28;;;0.10;;
32864;SDS011;19219;44.500;11.188;2023-10-31T10:40:46;1.58;;;0.30;;
32864;SDS011;19219;44.500;11.188;2023-10-31T10:43:21;0.30;;;0.20;;
32864;SDS011;19219;44.500;11.188;2023-10-31T10:45:55;0.90;;;0.30;;
32864;SDS011;19219;44.500;11.188;2023-10-31T10:48:22;0.20;;;0.20;;
32864;SDS011;19219;44.500;11.188;2023-10-31T10:50:57;0.15;;;0.15;;
32864;SDS011;19219;44.500;11.188;2023-10-31T10:53:31;0.40;;;0.40;;
32864;SDS011;19219;44.500;11.188;2023-10-31T10:56:08;0.88;;;0.30;;
32864;SDS011;19219;44.500;11.188;2023-10-31T11:01:25;0.28;;;0.28;;
32864;SDS011;19219;44.500;11.188;2023-10-31T11:03:53;0.35;;;0.35;;
32864;SDS011;19219;44.500;11.188;2023-10-31T11:06:20;0.80;;;0.30;;
32864;SDS011;19219;44.500;11.188;2023-10-31T11:08:46;0.38;;;0.20;;
32864;SDS011;19219;44.500;11.188;2023-10-31T11:11:12;0.40;;;0.20;;
32864;SDS011;19219;44.500;11.188;2023-10-31T11:13:41;0.10;;;0.10;;
32864;SDS011;19219;44.500;11.188;2023-10-31T11:16:11;1.00;;;0.20;;
32864;SDS011;19219;44.500;11.188;2023-10-31T11:18:42;0.32;;;0.32;;
32864;SDS011;19219;44.500;11.188;2023-10-31T11:21:08;2.60;;;0.40;;
32864;SDS011;19219;44.500;11.188;2023-10-31T11:23:35;0.30;;;0.20;;
32864;SDS011;19219;44.500;11.188;2023-10-31T11:26:01;0.38;;;0.38;;
32864;SDS011;19219;44.500;11.188;2023-10-31T11:28:26;0.17;;;0.13;;
32864;SDS011;19219;44.500;11.188;2023-10-31T11:30:52;1.60;;;0.20;;
32864;SDS011;19219;44.500;11.188;2023-10-31T11:33:24;0.95;;;0.20;;
32864;SDS011;19219;44.500;11.188;2023-10-31T11:36:03;0.20;;;0.20;;
32864;SDS011;19219;44.500;11.188;2023-10-31T11:38:34;0.65;;;0.35;;
32864;SDS011;19219;44.500;11.188;2023-10-31T11:41:01;0.35;;;0.35;;
32864;SDS011;19219;44.500;11.188;2023-10-31T11:46:17;0.65;;;0.32;;
32864;SDS011;19219;44.500;11.188;2023-10-31T11:48:46;0.85;;;0.30;;
32864;SDS011;19219;44.500;11.188;2023-10-31T11:51:15;0.20;;;0.20;;
32864;SDS011;19219;44.500;11.188;2023-10-31T11:53:41;0.50;;;0.13;;
32864;SDS011;19219;44.500;11.188;2023-10-31T11:56:09;2.25;;;0.20;;
32864;SDS011;19219;44.500;11.188;2023-10-31T11:58:36;0.20;;;0.20;;
32864;SDS011;19219;44.500;11.188;2023-10-31T12:01:06;0.08;;;0.08;;
32864;SDS011;19219;44.500;11.188;2023-10-31T12:03:40;0.20;;;0.10;;
32864;SDS011;19219;44.500;11.188;2023-10-31T12:06:07;0.32;;;0.28;;
32864;SDS011;19219;44.500;11.188;2023-10-31T12:08:37;0.13;;;0.10;;
32864;SDS011;19219;44.500;11.188;2023-10-31T12:11:04;0.28;;;0.28;;
32864;SDS011;19219;44.500;11.188;2023-10-31T12:13:42;0.40;;;0.40;;
32864;SDS011;19219;44.500;11.188;2023-10-31T12:16:17;1.50;;;0.30;;
32864;SDS011;19219;44.500;11.188;2023-10-31T12:18:43;0.30;;;0.15;;
32864;SDS011;19219;44.500;11.188;2023-10-31T12:21:09;0.47;;;0.20;;
32864;SDS011;19219;44.500;11.188;2023-10-31T12:23:39;0.65;;;0.20;;
32864;SDS011;19219;44.500;11.188;2023-10-31T12:26:05;0.30;;;0.30;;
32864;SDS011;19219;44.500;11.188;2023-10-31T12:28:30;0.13;;;0.13;;
32864;SDS011;19219;44.500;11.188;2023-10-31T12:30:56;0.10;;;0.08;;
32864;SDS011;19219;44.500;11.188;2023-10-31T12:33:25;1.90;;;0.30;;
32864;SDS011;19219;44.500;11.188;2023-10-31T12:35:52;0.60;;;0.30;;
32864;SDS011;19219;44.500;11.188;2023-10-31T12:38:23;0.80;;;0.25;;
32864;SDS011;19219;44.500;11.188;2023-10-31T12:40:49;2.78;;;0.60;;
32864;SDS011;19219;44.500;11.188;2023-10-31T12:43:15;0.17;;;0.17;;
32864;SDS011;19219;44.500;11.188;2023-10-31T12:45:42;0.55;;;0.30;;
32864;SDS011;19219;44.500;11.188;2023-10-31T12:48:08;0.20;;;0.20;;
32864;SDS011;19219;44.500;11.188;2023-10-31T12:50:35;1.08;;;0.30;;
32864;SDS011;19219;44.500;11.188;2023-10-31T12:53:02;0.85;;;0.30;;
32864;SDS011;19219;44.500;11.188;2023-10-31T12:55:29;0.05;;;0.05;;
32864;SDS011;19219;44.500;11.188;2023-10-31T12:57:56;0.30;;;0.30;;
32864;SDS011;19219;44.500;11.188;2023-10-31T13:00:29;1.65;;;0.50;;
32864;SDS011;19219;44.500;11.188;2023-10-31T13:03:00;0.45;;;0.38;;
32864;SDS011;19219;44.500;11.188;2023-10-31T13:05:27;1.20;;;0.35;;
32864;SDS011;19219;44.500;11.188;2023-10-31T13:07:54;1.00;;;0.47;;
32864;SDS011;19219;44.500;11.188;2023-10-31T13:10:22;1.55;;;0.60;;
32864;SDS011;19219;44.500;11.188;2023-10-31T13:12:49;1.50;;;0.50;;
32864;SDS011;19219;44.500;11.188;2023-10-31T13:15:16;0.80;;;0.40;;
32864;SDS011;19219;44.500;11.188;2023-10-31T13:17:43;0.88;;;0.22;;
32864;SDS011;19219;44.500;11.188;2023-10-31T13:20:10;1.08;;;0.50;;
32864;SDS011;19219;44.500;11.188;2023-10-31T13:22:38;1.65;;;0.60;;
32864;SDS011;19219;44.500;11.188;2023-10-31T13:25:05;0.88;;;0.32;;
32864;SDS011;19219;44.500;11.188;2023-10-31T13:27:39;2.10;;;0.45;;
32864;SDS011;19219;44.500;11.188;2023-10-31T13:30:08;2.03;;;0.38;;
32864;SDS011;19219;44.500;11.188;2023-10-31T13:32:35;1.42;;;0.60;;
32864;SDS011;19219;44.500;11.188;2023-10-31T13:35:01;5.45;;;1.30;;
32864;SDS011;19219;44.500;11.188;2023-10-31T13:37:28;5.97;;;1.30;;
32864;SDS011;19219;44.500;11.188;2023-10-31T13:39:53;4.70;;;1.20;;
32864;SDS011;19219;44.500;11.188;2023-10-31T13:42:19;2.25;;;1.15;;
32864;SDS011;19219;44.500;11.188;2023-10-31T13:44:45;2.67;;;1.00;;
32864;SDS011;19219;44.500;11.188;2023-10-31T13:47:11;6.20;;;1.30;;
32864;SDS011;19219;44.500;11.188;2023-10-31T13:49:36;7.22;;;1.58;;
32864;SDS011;19219;44.500;11.188;2023-10-31T13:52:04;6.38;;;1.30;;
32864;SDS011;19219;44.500;11.188;2023-10-31T13:54:31;2.97;;;1.27;;
32864;SDS011;19219;44.500;11.188;2023-10-31T13:56:57;7.10;;;1.45;;
32864;SDS011;19219;44.500;11.188;2023-10-31T13:59:23;3.70;;;1.05;;
32864;SDS011;19219;44.500;11.188;2023-10-31T14:01:49;4.43;;;1.05;;
32864;SDS011;19219;44.500;11.188;2023-10-31T14:04:15;2.08;;;0.98;;
32864;SDS011;19219;44.500;11.188;2023-10-31T14:06:41;2.35;;;1.25;;
32864;SDS011;19219;44.500;11.188;2023-10-31T14:09:07;4.20;;;1.25;;
32864;SDS011;19219;44.500;11.188;2023-10-31T14:11:35;3.47;;;1.58;;
32864;SDS011;19219;44.500;11.188;2023-10-31T14:14:01;3.40;;;1.35;;
32864;SDS011;19219;44.500;11.188;2023-10-31T14:16:41;2.15;;;1.02;;
32864;SDS011;19219;44.500;11.188;2023-10-31T14:19:09;6.28;;;1.17;;
32864;SDS011;19219;44.500;11.188;2023-10-31T14:21:35;2.85;;;1.25;;
32864;SDS011;19219;44.500;11.188;2023-10-31T14:24:01;6.15;;;1.67;;
32864;SDS011;19219;44.500;11.188;2023-10-31T14:26:28;4.25;;;1.60;;
32864;SDS011;19219;44.500;11.188;2023-10-31T14:28:54;4.07;;;1.38;;
32864;SDS011;19219;44.500;11.188;2023-10-31T14:31:20;7.07;;;1.50;;
32864;SDS011;19219;44.500;11.188;2023-10-31T14:33:46;13.90;;;1.80;;
32864;SDS011;19219;44.500;11.188;2023-10-31T14:36:12;5.35;;;1.25;;
32864;SDS011;19219;44.500;11.188;2023-10-31T14:38:38;10.95;;;4.57;;